Terminal Aerodrome Forecast
Issued by NWS

Home | Current Version | Previous Version | Text Only | Print | Product List | Glossary On
Versions: 1 2 3 4 5 6 7 8 9 10 11 12 13 14
000
FTUS42 KRAH 221310 AAA
TAFINT
TAF AMD
KINT 221310Z 2213/2312 12003KT 2SM BR OVC004
      TEMPO 2213/2214 1/2SM FG VV002
     FM221400 14003KT P6SM SCT006 SCT250
      TEMPO 2214/2215 4SM BR BKN005
     FM221600 14005KT P6SM SCT030 SCT250
     FM230100 15004KT P6SM BKN200
     FM231000 11004KT P6SM VCSH BKN015 BKN035=

USA.gov is the U.S. government's official web portal to all federal, state and local government web resources and services.